Dati Storici

Data ora Umidita' aria (%) Temperatura aria (°C) Rad globale (W/m²) Gonioanemometro (°) Tacoanemometro (m/s) Pioggia (mm)
11-06-2020 14:10 66 % 20.116 -71.1 3.117 0 0
11-06-2020 14:00 63.7 % 20.588 -69.652 2.341 0 0
11-06-2020 13:50 62.4 % 21.875 -69.319 0.879 0 0
11-06-2020 13:40 64.6 % 21.65 -73.274 1.799 0 0
11-06-2020 13:30 65.7 % 21.725 -71.049 2.477 0 0
11-06-2020 13:20 65.1 % 21.756 -67.301 3.859 0 0
11-06-2020 13:10 65.8 % 22.505 -68.613 1.113 0 0
11-06-2020 13:00 68.3 % 21.998 -76.327 1.768 0 0
11-06-2020 12:50 64.8 % 22.148 -69.234 0.684 0 0
11-06-2020 12:40 66.1 % 22.078 -73.135 1.225 0 0
11-06-2020 12:30 70.2 % 22.036 -74.288 1.072 0 0
11-06-2020 12:20 70.6 % 21.394 -71.435 1.065 0 0
11-06-2020 12:10 69.3 % 21.658 -75.205 2.155 0 0
11-06-2020 12:00 69.2 % 21.754 -71.096 2.7 0 0
11-06-2020 11:50 69.6 % 21.282 -68.995 2.674 0 0
11-06-2020 11:40 70.7 % 21.419 -73.428 0.698 0 0
11-06-2020 11:30 72.8 % 21.093 -72.263 2.663 0 0
11-06-2020 11:20 70 % 20.446 -76.587 3.026 0 0
11-06-2020 11:10 72.2 % 20.44 -74.894 2.133 0 0
11-06-2020 11:00 74.5 % 20.381 -77.657 0.824 0 0

I dati sono presentati in modo automatico a scopo informativo. In seguito a verifica i dati possono subire modifiche o essere invalidati e non riportati negli archivi definitivi.